sensor_id;sensor_type;location;lat;lon;timestamp;P1;durP1;ratioP1;P2;durP2;ratioP2
10418;SDS011;5256;48.728;9.140;2023-04-03T00:01:02;0.80;;;0.80;;
10418;SDS011;5256;48.728;9.140;2023-04-03T00:03:28;0.80;;;0.80;;
10418;SDS011;5256;48.728;9.140;2023-04-03T00:05:54;0.80;;;0.80;;
10418;SDS011;5256;48.728;9.140;2023-04-03T00:08:20;0.90;;;0.90;;
10418;SDS011;5256;48.728;9.140;2023-04-03T00:10:46;0.80;;;0.80;;
10418;SDS011;5256;48.728;9.140;2023-04-03T00:13:12;0.80;;;0.80;;
10418;SDS011;5256;48.728;9.140;2023-04-03T00:15:39;0.90;;;0.90;;
10418;SDS011;5256;48.728;9.140;2023-04-03T00:18:05;0.80;;;0.80;;
10418;SDS011;5256;48.728;9.140;2023-04-03T00:20:31;0.77;;;0.77;;
10418;SDS011;5256;48.728;9.140;2023-04-03T00:22:56;0.80;;;0.80;;
10418;SDS011;5256;48.728;9.140;2023-04-03T00:25:22;0.80;;;0.80;;
10418;SDS011;5256;48.728;9.140;2023-04-03T00:27:52;0.77;;;0.77;;
10418;SDS011;5256;48.728;9.140;2023-04-03T00:30:18;0.80;;;0.80;;
10418;SDS011;5256;48.728;9.140;2023-04-03T00:32:46;0.80;;;0.80;;
10418;SDS011;5256;48.728;9.140;2023-04-03T00:35:13;0.80;;;0.80;;
10418;SDS011;5256;48.728;9.140;2023-04-03T00:37:41;0.80;;;0.80;;
10418;SDS011;5256;48.728;9.140;2023-04-03T00:40:07;0.80;;;0.80;;
10418;SDS011;5256;48.728;9.140;2023-04-03T00:42:35;0.90;;;0.90;;
10418;SDS011;5256;48.728;9.140;2023-04-03T00:47:27;0.87;;;0.87;;
10418;SDS011;5256;48.728;9.140;2023-04-03T00:49:54;0.80;;;0.80;;
10418;SDS011;5256;48.728;9.140;2023-04-03T00:52:21;0.90;;;0.90;;
10418;SDS011;5256;48.728;9.140;2023-04-03T00:54:53;0.87;;;0.87;;
10418;SDS011;5256;48.728;9.140;2023-04-03T00:57:22;0.83;;;0.83;;
10418;SDS011;5256;48.728;9.140;2023-04-03T00:59:51;0.80;;;0.80;;
10418;SDS011;5256;48.728;9.140;2023-04-03T01:02:23;0.90;;;0.90;;
10418;SDS011;5256;48.728;9.140;2023-04-03T01:04:48;0.90;;;0.90;;
10418;SDS011;5256;48.728;9.140;2023-04-03T01:07:21;0.90;;;0.90;;
10418;SDS011;5256;48.728;9.140;2023-04-03T01:09:51;0.90;;;0.90;;
10418;SDS011;5256;48.728;9.140;2023-04-03T01:14:51;0.80;;;0.80;;
10418;SDS011;5256;48.728;9.140;2023-04-03T01:20:45;0.90;;;0.90;;
10418;SDS011;5256;48.728;9.140;2023-04-03T01:25:39;0.80;;;0.80;;
10418;SDS011;5256;48.728;9.140;2023-04-03T01:28:15;0.80;;;0.80;;
10418;SDS011;5256;48.728;9.140;2023-04-03T01:33:43;0.87;;;0.87;;
10418;SDS011;5256;48.728;9.140;2023-04-03T01:36:10;0.90;;;0.90;;
10418;SDS011;5256;48.728;9.140;2023-04-03T01:38:40;0.80;;;0.80;;
10418;SDS011;5256;48.728;9.140;2023-04-03T01:41:06;0.80;;;0.80;;
10418;SDS011;5256;48.728;9.140;2023-04-03T01:43:31;0.80;;;0.80;;
10418;SDS011;5256;48.728;9.140;2023-04-03T01:45:57;0.80;;;0.80;;
10418;SDS011;5256;48.728;9.140;2023-04-03T01:48:22;0.80;;;0.80;;
10418;SDS011;5256;48.728;9.140;2023-04-03T01:50:48;0.90;;;0.90;;
10418;SDS011;5256;48.728;9.140;2023-04-03T01:53:14;0.80;;;0.80;;
10418;SDS011;5256;48.728;9.140;2023-04-03T01:55:39;0.80;;;0.80;;
10418;SDS011;5256;48.728;9.140;2023-04-03T01:58:05;0.90;;;0.90;;
10418;SDS011;5256;48.728;9.140;2023-04-03T02:00:30;0.80;;;0.80;;
10418;SDS011;5256;48.728;9.140;2023-04-03T02:02:56;0.77;;;0.77;;
10418;SDS011;5256;48.728;9.140;2023-04-03T02:05:22;0.80;;;0.80;;
10418;SDS011;5256;48.728;9.140;2023-04-03T02:07:47;0.80;;;0.80;;
10418;SDS011;5256;48.728;9.140;2023-04-03T02:10:13;0.70;;;0.70;;
10418;SDS011;5256;48.728;9.140;2023-04-03T02:12:39;0.70;;;0.70;;
10418;SDS011;5256;48.728;9.140;2023-04-03T02:15:04;0.90;;;0.90;;
10418;SDS011;5256;48.728;9.140;2023-04-03T02:17:30;0.80;;;0.80;;
10418;SDS011;5256;48.728;9.140;2023-04-03T02:19:56;0.80;;;0.80;;
10418;SDS011;5256;48.728;9.140;2023-04-03T02:22:21;0.83;;;0.83;;
10418;SDS011;5256;48.728;9.140;2023-04-03T02:24:47;0.80;;;0.80;;
10418;SDS011;5256;48.728;9.140;2023-04-03T02:27:13;0.80;;;0.80;;
10418;SDS011;5256;48.728;9.140;2023-04-03T02:29:39;0.80;;;0.80;;
10418;SDS011;5256;48.728;9.140;2023-04-03T02:32:05;0.80;;;0.80;;
10418;SDS011;5256;48.728;9.140;2023-04-03T02:34:30;0.80;;;0.80;;
10418;SDS011;5256;48.728;9.140;2023-04-03T02:36:56;0.87;;;0.87;;
10418;SDS011;5256;48.728;9.140;2023-04-03T02:39:22;0.80;;;0.80;;
10418;SDS011;5256;48.728;9.140;2023-04-03T02:41:47;0.80;;;0.80;;
10418;SDS011;5256;48.728;9.140;2023-04-03T02:44:13;0.80;;;0.80;;
10418;SDS011;5256;48.728;9.140;2023-04-03T02:46:39;0.80;;;0.80;;
10418;SDS011;5256;48.728;9.140;2023-04-03T02:49:05;0.80;;;0.80;;
10418;SDS011;5256;48.728;9.140;2023-04-03T02:51:30;0.80;;;0.80;;
10418;SDS011;5256;48.728;9.140;2023-04-03T02:53:56;0.90;;;0.90;;
10418;SDS011;5256;48.728;9.140;2023-04-03T02:56:21;0.90;;;0.90;;
10418;SDS011;5256;48.728;9.140;2023-04-03T02:58:47;0.80;;;0.80;;
10418;SDS011;5256;48.728;9.140;2023-04-03T03:01:13;0.80;;;0.80;;
10418;SDS011;5256;48.728;9.140;2023-04-03T03:03:38;0.80;;;0.80;;
10418;SDS011;5256;48.728;9.140;2023-04-03T03:06:08;0.87;;;0.87;;
10418;SDS011;5256;48.728;9.140;2023-04-03T03:08:36;0.80;;;0.80;;
10418;SDS011;5256;48.728;9.140;2023-04-03T03:11:02;0.80;;;0.80;;
10418;SDS011;5256;48.728;9.140;2023-04-03T03:13:28;0.83;;;0.83;;
10418;SDS011;5256;48.728;9.140;2023-04-03T03:15:54;0.80;;;0.80;;
10418;SDS011;5256;48.728;9.140;2023-04-03T03:18:20;0.90;;;0.90;;
10418;SDS011;5256;48.728;9.140;2023-04-03T03:20:46;0.90;;;0.90;;
10418;SDS011;5256;48.728;9.140;2023-04-03T03:23:15;0.70;;;0.70;;
10418;SDS011;5256;48.728;9.140;2023-04-03T03:25:41;0.80;;;0.80;;
10418;SDS011;5256;48.728;9.140;2023-04-03T03:28:07;0.80;;;0.80;;
10418;SDS011;5256;48.728;9.140;2023-04-03T03:30:33;0.80;;;0.80;;
10418;SDS011;5256;48.728;9.140;2023-04-03T03:32:59;0.80;;;0.80;;
10418;SDS011;5256;48.728;9.140;2023-04-03T03:35:25;0.80;;;0.80;;
10418;SDS011;5256;48.728;9.140;2023-04-03T03:37:50;0.80;;;0.80;;
10418;SDS011;5256;48.728;9.140;2023-04-03T03:40:16;0.90;;;0.90;;
10418;SDS011;5256;48.728;9.140;2023-04-03T03:42:41;0.80;;;0.80;;
10418;SDS011;5256;48.728;9.140;2023-04-03T03:45:07;0.73;;;0.73;;
10418;SDS011;5256;48.728;9.140;2023-04-03T03:47:33;0.80;;;0.80;;
10418;SDS011;5256;48.728;9.140;2023-04-03T03:49:59;0.80;;;0.80;;
10418;SDS011;5256;48.728;9.140;2023-04-03T03:52:25;0.90;;;0.90;;
10418;SDS011;5256;48.728;9.140;2023-04-03T03:54:51;0.73;;;0.73;;
10418;SDS011;5256;48.728;9.140;2023-04-03T03:57:16;0.90;;;0.90;;
10418;SDS011;5256;48.728;9.140;2023-04-03T03:59:42;0.80;;;0.80;;
10418;SDS011;5256;48.728;9.140;2023-04-03T04:02:09;0.80;;;0.80;;
10418;SDS011;5256;48.728;9.140;2023-04-03T04:04:35;0.90;;;0.90;;
10418;SDS011;5256;48.728;9.140;2023-04-03T04:07:01;0.73;;;0.73;;
10418;SDS011;5256;48.728;9.140;2023-04-03T04:09:26;0.80;;;0.80;;
10418;SDS011;5256;48.728;9.140;2023-04-03T04:11:52;0.90;;;0.90;;
10418;SDS011;5256;48.728;9.140;2023-04-03T04:14:18;0.80;;;0.80;;
10418;SDS011;5256;48.728;9.140;2023-04-03T04:16:45;0.80;;;0.80;;
10418;SDS011;5256;48.728;9.140;2023-04-03T04:19:11;0.80;;;0.80;;
10418;SDS011;5256;48.728;9.140;2023-04-03T04:21:38;0.83;;;0.83;;
10418;SDS011;5256;48.728;9.140;2023-04-03T04:24:04;0.80;;;0.80;;
10418;SDS011;5256;48.728;9.140;2023-04-03T04:26:30;0.80;;;0.80;;
10418;SDS011;5256;48.728;9.140;2023-04-03T04:28:56;0.80;;;0.80;;
10418;SDS011;5256;48.728;9.140;2023-04-03T04:31:22;0.80;;;0.80;;
10418;SDS011;5256;48.728;9.140;2023-04-03T04:33:47;0.80;;;0.80;;
10418;SDS011;5256;48.728;9.140;2023-04-03T04:36:13;0.80;;;0.80;;
10418;SDS011;5256;48.728;9.140;2023-04-03T04:38:39;0.80;;;0.80;;
10418;SDS011;5256;48.728;9.140;2023-04-03T04:41:05;0.80;;;0.80;;
10418;SDS011;5256;48.728;9.140;2023-04-03T04:43:31;0.80;;;0.80;;
10418;SDS011;5256;48.728;9.140;2023-04-03T04:46:00;0.80;;;0.80;;
10418;SDS011;5256;48.728;9.140;2023-04-03T04:48:27;0.70;;;0.70;;
10418;SDS011;5256;48.728;9.140;2023-04-03T04:50:52;0.80;;;0.80;;
10418;SDS011;5256;48.728;9.140;2023-04-03T04:53:18;0.80;;;0.80;;
10418;SDS011;5256;48.728;9.140;2023-04-03T04:55:43;0.80;;;0.80;;
10418;SDS011;5256;48.728;9.140;2023-04-03T04:58:09;0.80;;;0.80;;
10418;SDS011;5256;48.728;9.140;2023-04-03T05:00:35;0.90;;;0.90;;
10418;SDS011;5256;48.728;9.140;2023-04-03T05:03:00;0.80;;;0.80;;
10418;SDS011;5256;48.728;9.140;2023-04-03T05:05:26;0.80;;;0.80;;
10418;SDS011;5256;48.728;9.140;2023-04-03T05:07:51;0.80;;;0.80;;
10418;SDS011;5256;48.728;9.140;2023-04-03T05:10:17;0.80;;;0.80;;
10418;SDS011;5256;48.728;9.140;2023-04-03T05:12:42;0.80;;;0.80;;
10418;SDS011;5256;48.728;9.140;2023-04-03T05:15:08;0.80;;;0.80;;
10418;SDS011;5256;48.728;9.140;2023-04-03T05:17:34;0.80;;;0.80;;
10418;SDS011;5256;48.728;9.140;2023-04-03T05:20:03;0.80;;;0.80;;
10418;SDS011;5256;48.728;9.140;2023-04-03T05:22:29;0.90;;;0.90;;
10418;SDS011;5256;48.728;9.140;2023-04-03T05:24:55;0.77;;;0.77;;
10418;SDS011;5256;48.728;9.140;2023-04-03T05:27:21;0.70;;;0.70;;
10418;SDS011;5256;48.728;9.140;2023-04-03T05:29:49;0.80;;;0.80;;
10418;SDS011;5256;48.728;9.140;2023-04-03T05:32:15;0.73;;;0.73;;
10418;SDS011;5256;48.728;9.140;2023-04-03T05:34:40;0.70;;;0.70;;
10418;SDS011;5256;48.728;9.140;2023-04-03T05:37:06;0.90;;;0.90;;
10418;SDS011;5256;48.728;9.140;2023-04-03T05:39:32;0.80;;;0.80;;
10418;SDS011;5256;48.728;9.140;2023-04-03T05:41:58;0.80;;;0.80;;
10418;SDS011;5256;48.728;9.140;2023-04-03T05:44:23;0.80;;;0.80;;
10418;SDS011;5256;48.728;9.140;2023-04-03T05:46:49;0.80;;;0.80;;
10418;SDS011;5256;48.728;9.140;2023-04-03T05:49:14;0.70;;;0.70;;
10418;SDS011;5256;48.728;9.140;2023-04-03T05:51:40;0.80;;;0.80;;
10418;SDS011;5256;48.728;9.140;2023-04-03T05:54:09;0.73;;;0.73;;
10418;SDS011;5256;48.728;9.140;2023-04-03T05:56:54;0.70;;;0.70;;
10418;SDS011;5256;48.728;9.140;2023-04-03T05:59:20;0.70;;;0.70;;
10418;SDS011;5256;48.728;9.140;2023-04-03T06:01:46;0.80;;;0.80;;
10418;SDS011;5256;48.728;9.140;2023-04-03T06:04:12;0.80;;;0.80;;
10418;SDS011;5256;48.728;9.140;2023-04-03T06:07:12;0.87;;;0.87;;
10418;SDS011;5256;48.728;9.140;2023-04-03T06:09:32;0.80;;;0.80;;
10418;SDS011;5256;48.728;9.140;2023-04-03T06:11:58;0.80;;;0.80;;
10418;SDS011;5256;48.728;9.140;2023-04-03T06:14:24;0.90;;;0.90;;
10418;SDS011;5256;48.728;9.140;2023-04-03T06:16:51;0.70;;;0.70;;
10418;SDS011;5256;48.728;9.140;2023-04-03T06:19:17;0.80;;;0.80;;
10418;SDS011;5256;48.728;9.140;2023-04-03T06:21:43;0.80;;;0.80;;
10418;SDS011;5256;48.728;9.140;2023-04-03T06:24:09;0.80;;;0.80;;
10418;SDS011;5256;48.728;9.140;2023-04-03T06:26:37;0.80;;;0.80;;
10418;SDS011;5256;48.728;9.140;2023-04-03T06:29:02;0.80;;;0.80;;
10418;SDS011;5256;48.728;9.140;2023-04-03T06:31:28;0.70;;;0.70;;
10418;SDS011;5256;48.728;9.140;2023-04-03T06:33:54;0.80;;;0.80;;
10418;SDS011;5256;48.728;9.140;2023-04-03T06:36:21;0.70;;;0.70;;
10418;SDS011;5256;48.728;9.140;2023-04-03T06:38:47;0.70;;;0.70;;
10418;SDS011;5256;48.728;9.140;2023-04-03T06:41:12;0.70;;;0.70;;
10418;SDS011;5256;48.728;9.140;2023-04-03T06:43:38;0.70;;;0.70;;
10418;SDS011;5256;48.728;9.140;2023-04-03T06:46:04;0.70;;;0.70;;
10418;SDS011;5256;48.728;9.140;2023-04-03T06:48:30;0.70;;;0.70;;
10418;SDS011;5256;48.728;9.140;2023-04-03T06:50:55;0.70;;;0.70;;
10418;SDS011;5256;48.728;9.140;2023-04-03T06:53:21;0.70;;;0.70;;
10418;SDS011;5256;48.728;9.140;2023-04-03T06:55:47;0.80;;;0.80;;
10418;SDS011;5256;48.728;9.140;2023-04-03T06:58:12;0.70;;;0.70;;
10418;SDS011;5256;48.728;9.140;2023-04-03T07:00:40;0.60;;;0.60;;
10418;SDS011;5256;48.728;9.140;2023-04-03T07:03:06;0.70;;;0.70;;
10418;SDS011;5256;48.728;9.140;2023-04-03T07:05:31;0.80;;;0.80;;
10418;SDS011;5256;48.728;9.140;2023-04-03T07:07:57;0.70;;;0.70;;
10418;SDS011;5256;48.728;9.140;2023-04-03T07:10:23;0.80;;;0.80;;
10418;SDS011;5256;48.728;9.140;2023-04-03T07:12:48;0.77;;;0.77;;
10418;SDS011;5256;48.728;9.140;2023-04-03T07:15:14;0.80;;;0.80;;
10418;SDS011;5256;48.728;9.140;2023-04-03T07:17:40;0.80;;;0.80;;
10418;SDS011;5256;48.728;9.140;2023-04-03T07:20:06;0.70;;;0.70;;
10418;SDS011;5256;48.728;9.140;2023-04-03T07:22:33;0.70;;;0.70;;
10418;SDS011;5256;48.728;9.140;2023-04-03T07:24:58;0.67;;;0.67;;
10418;SDS011;5256;48.728;9.140;2023-04-03T07:27:24;0.70;;;0.70;;
10418;SDS011;5256;48.728;9.140;2023-04-03T07:29:50;0.70;;;0.70;;
10418;SDS011;5256;48.728;9.140;2023-04-03T07:32:16;0.40;;;0.40;;
10418;SDS011;5256;48.728;9.140;2023-04-03T07:34:42;0.60;;;0.60;;
10418;SDS011;5256;48.728;9.140;2023-04-03T07:37:08;0.70;;;0.70;;
10418;SDS011;5256;48.728;9.140;2023-04-03T07:39:34;0.70;;;0.70;;
10418;SDS011;5256;48.728;9.140;2023-04-03T07:44:53;0.70;;;0.70;;
10418;SDS011;5256;48.728;9.140;2023-04-03T07:47:19;0.60;;;0.60;;
10418;SDS011;5256;48.728;9.140;2023-04-03T07:49:45;0.70;;;0.70;;
10418;SDS011;5256;48.728;9.140;2023-04-03T07:52:12;0.70;;;0.70;;
10418;SDS011;5256;48.728;9.140;2023-04-03T07:54:39;0.60;;;0.60;;
10418;SDS011;5256;48.728;9.140;2023-04-03T07:57:05;0.80;;;0.80;;
10418;SDS011;5256;48.728;9.140;2023-04-03T07:59:31;0.70;;;0.70;;
10418;SDS011;5256;48.728;9.140;2023-04-03T08:01:57;0.70;;;0.70;;
10418;SDS011;5256;48.728;9.140;2023-04-03T08:04:23;0.80;;;0.80;;
10418;SDS011;5256;48.728;9.140;2023-04-03T08:06:48;0.73;;;0.73;;
10418;SDS011;5256;48.728;9.140;2023-04-03T08:09:14;0.70;;;0.70;;
10418;SDS011;5256;48.728;9.140;2023-04-03T08:11:41;0.70;;;0.70;;
10418;SDS011;5256;48.728;9.140;2023-04-03T08:14:06;0.60;;;0.60;;
10418;SDS011;5256;48.728;9.140;2023-04-03T08:16:32;0.70;;;0.70;;
10418;SDS011;5256;48.728;9.140;2023-04-03T08:18:57;0.60;;;0.60;;
10418;SDS011;5256;48.728;9.140;2023-04-03T08:21:24;0.60;;;0.60;;
10418;SDS011;5256;48.728;9.140;2023-04-03T08:23:50;0.60;;;0.60;;
10418;SDS011;5256;48.728;9.140;2023-04-03T08:26:16;0.67;;;0.67;;
10418;SDS011;5256;48.728;9.140;2023-04-03T08:28:44;0.70;;;0.70;;
10418;SDS011;5256;48.728;9.140;2023-04-03T08:31:11;0.70;;;0.70;;
10418;SDS011;5256;48.728;9.140;2023-04-03T08:33:40;0.68;;;0.68;;
10418;SDS011;5256;48.728;9.140;2023-04-03T08:36:06;0.60;;;0.60;;
10418;SDS011;5256;48.728;9.140;2023-04-03T08:38:40;0.70;;;0.70;;
10418;SDS011;5256;48.728;9.140;2023-04-03T08:49:55;0.70;;;0.70;;
10418;SDS011;5256;48.728;9.140;2023-04-03T08:52:41;0.70;;;0.70;;
10418;SDS011;5256;48.728;9.140;2023-04-03T08:55:30;0.70;;;0.70;;
10418;SDS011;5256;48.728;9.140;2023-04-03T08:58:05;0.70;;;0.70;;
10418;SDS011;5256;48.728;9.140;2023-04-03T09:00:49;0.67;;;0.67;;
10418;SDS011;5256;48.728;9.140;2023-04-03T09:03:17;0.60;;;0.60;;
10418;SDS011;5256;48.728;9.140;2023-04-03T09:19:49;0.60;;;0.60;;
10418;SDS011;5256;48.728;9.140;2023-04-03T09:21:51;0.70;;;0.70;;
10418;SDS011;5256;48.728;9.140;2023-04-03T09:24:17;0.60;;;0.60;;
10418;SDS011;5256;48.728;9.140;2023-04-03T09:26:59;0.60;;;0.60;;
10418;SDS011;5256;48.728;9.140;2023-04-03T09:29:29;0.60;;;0.60;;
10418;SDS011;5256;48.728;9.140;2023-04-03T09:32:02;0.60;;;0.60;;
10418;SDS011;5256;48.728;9.140;2023-04-03T09:34:49;0.60;;;0.60;;
10418;SDS011;5256;48.728;9.140;2023-04-03T09:37:38;0.63;;;0.63;;
10418;SDS011;5256;48.728;9.140;2023-04-03T09:40:27;0.60;;;0.60;;
10418;SDS011;5256;48.728;9.140;2023-04-03T09:42:55;0.70;;;0.70;;
10418;SDS011;5256;48.728;9.140;2023-04-03T09:45:24;0.70;;;0.70;;
10418;SDS011;5256;48.728;9.140;2023-04-03T09:58:43;0.70;;;0.70;;
10418;SDS011;5256;48.728;9.140;2023-04-03T10:01:30;0.60;;;0.60;;
10418;SDS011;5256;48.728;9.140;2023-04-03T10:04:05;0.60;;;0.60;;
10418;SDS011;5256;48.728;9.140;2023-04-03T10:06:31;0.60;;;0.60;;
10418;SDS011;5256;48.728;9.140;2023-04-03T10:09:05;0.60;;;0.60;;
10418;SDS011;5256;48.728;9.140;2023-04-03T10:11:47;0.60;;;0.60;;
10418;SDS011;5256;48.728;9.140;2023-04-03T10:14:24;0.70;;;0.70;;
10418;SDS011;5256;48.728;9.140;2023-04-03T10:19:46;0.60;;;0.60;;
10418;SDS011;5256;48.728;9.140;2023-04-03T10:22:20;0.60;;;0.60;;
10418;SDS011;5256;48.728;9.140;2023-04-03T10:27:56;0.63;;;0.63;;
10418;SDS011;5256;48.728;9.140;2023-04-03T10:33:08;0.70;;;0.70;;
10418;SDS011;5256;48.728;9.140;2023-04-03T10:35:45;0.70;;;0.70;;
10418;SDS011;5256;48.728;9.140;2023-04-03T10:43:57;0.73;;;0.73;;
10418;SDS011;5256;48.728;9.140;2023-04-03T10:47:19;0.67;;;0.67;;
10418;SDS011;5256;48.728;9.140;2023-04-03T10:54:42;0.70;;;0.70;;
10418;SDS011;5256;48.728;9.140;2023-04-03T10:57:36;0.70;;;0.70;;
10418;SDS011;5256;48.728;9.140;2023-04-03T11:00:04;0.70;;;0.70;;
10418;SDS011;5256;48.728;9.140;2023-04-03T11:02:56;0.77;;;0.77;;
10418;SDS011;5256;48.728;9.140;2023-04-03T11:07:51;0.60;;;0.60;;
10418;SDS011;5256;48.728;9.140;2023-04-03T11:10:23;0.70;;;0.70;;
10418;SDS011;5256;48.728;9.140;2023-04-03T11:13:14;0.70;;;0.70;;
10418;SDS011;5256;48.728;9.140;2023-04-03T11:15:51;0.70;;;0.70;;
10418;SDS011;5256;48.728;9.140;2023-04-03T11:18:21;0.70;;;0.70;;
10418;SDS011;5256;48.728;9.140;2023-04-03T11:21:06;0.70;;;0.70;;
10418;SDS011;5256;48.728;9.140;2023-04-03T11:23:46;0.70;;;0.70;;
10418;SDS011;5256;48.728;9.140;2023-04-03T11:26:13;0.80;;;0.80;;
10418;SDS011;5256;48.728;9.140;2023-04-03T11:28:42;0.60;;;0.60;;
10418;SDS011;5256;48.728;9.140;2023-04-03T11:33:42;0.60;;;0.60;;
10418;SDS011;5256;48.728;9.140;2023-04-03T11:36:31;0.73;;;0.73;;
10418;SDS011;5256;48.728;9.140;2023-04-03T11:39:15;0.70;;;0.70;;
10418;SDS011;5256;48.728;9.140;2023-04-03T11:41:45;0.63;;;0.63;;
10418;SDS011;5256;48.728;9.140;2023-04-03T11:44:29;0.70;;;0.70;;
10418;SDS011;5256;48.728;9.140;2023-04-03T11:47:02;0.60;;;0.60;;
10418;SDS011;5256;48.728;9.140;2023-04-03T11:50:28;0.70;;;0.70;;
10418;SDS011;5256;48.728;9.140;2023-04-03T12:08:26;0.60;;;0.60;;
10418;SDS011;5256;48.728;9.140;2023-04-03T12:21:21;0.67;;;0.67;;
10418;SDS011;5256;48.728;9.140;2023-04-03T12:24:00;0.70;;;0.70;;
10418;SDS011;5256;48.728;9.140;2023-04-03T12:26:40;0.60;;;0.60;;
10418;SDS011;5256;48.728;9.140;2023-04-03T12:29:24;0.70;;;0.70;;
10418;SDS011;5256;48.728;9.140;2023-04-03T12:34:42;0.70;;;0.70;;
10418;SDS011;5256;48.728;9.140;2023-04-03T12:45:39;0.63;;;0.63;;
10418;SDS011;5256;48.728;9.140;2023-04-03T12:48:18;0.70;;;0.70;;
10418;SDS011;5256;48.728;9.140;2023-04-03T12:50:49;0.63;;;0.63;;
10418;SDS011;5256;48.728;9.140;2023-04-03T12:53:22;0.70;;;0.70;;
10418;SDS011;5256;48.728;9.140;2023-04-03T12:55:55;0.60;;;0.60;;
10418;SDS011;5256;48.728;9.140;2023-04-03T12:58:41;0.50;;;0.50;;
10418;SDS011;5256;48.728;9.140;2023-04-03T13:01:11;0.70;;;0.70;;
10418;SDS011;5256;48.728;9.140;2023-04-03T13:03:40;0.70;;;0.70;;
10418;SDS011;5256;48.728;9.140;2023-04-03T13:06:17;0.70;;;0.70;;
10418;SDS011;5256;48.728;9.140;2023-04-03T13:11:18;0.60;;;0.60;;
10418;SDS011;5256;48.728;9.140;2023-04-03T13:19:46;0.40;;;0.40;;
10418;SDS011;5256;48.728;9.140;2023-04-03T13:22:31;0.60;;;0.60;;
10418;SDS011;5256;48.728;9.140;2023-04-03T13:25:08;0.50;;;0.50;;
10418;SDS011;5256;48.728;9.140;2023-04-03T13:27:35;0.50;;;0.50;;
10418;SDS011;5256;48.728;9.140;2023-04-03T13:30:04;0.57;;;0.57;;
10418;SDS011;5256;48.728;9.140;2023-04-03T13:32:31;0.50;;;0.50;;
10418;SDS011;5256;48.728;9.140;2023-04-03T13:34:57;0.50;;;0.50;;
10418;SDS011;5256;48.728;9.140;2023-04-03T13:37:30;0.60;;;0.60;;
10418;SDS011;5256;48.728;9.140;2023-04-03T13:42:29;0.60;;;0.60;;
10418;SDS011;5256;48.728;9.140;2023-04-03T13:47:41;0.60;;;0.60;;
10418;SDS011;5256;48.728;9.140;2023-04-03T13:52:40;0.60;;;0.60;;
10418;SDS011;5256;48.728;9.140;2023-04-03T13:55:19;0.60;;;0.60;;
10418;SDS011;5256;48.728;9.140;2023-04-03T13:57:52;0.50;;;0.50;;
10418;SDS011;5256;48.728;9.140;2023-04-03T14:03:02;0.60;;;0.60;;
10418;SDS011;5256;48.728;9.140;2023-04-03T14:05:37;0.60;;;0.60;;
10418;SDS011;5256;48.728;9.140;2023-04-03T14:08:02;0.70;;;0.70;;
10418;SDS011;5256;48.728;9.140;2023-04-03T14:10:28;0.60;;;0.60;;
10418;SDS011;5256;48.728;9.140;2023-04-03T14:12:55;0.60;;;0.60;;
10418;SDS011;5256;48.728;9.140;2023-04-03T14:15:24;0.60;;;0.60;;
10418;SDS011;5256;48.728;9.140;2023-04-03T14:17:53;0.60;;;0.60;;
10418;SDS011;5256;48.728;9.140;2023-04-03T14:20:21;0.60;;;0.60;;
10418;SDS011;5256;48.728;9.140;2023-04-03T14:22:49;0.70;;;0.70;;
10418;SDS011;5256;48.728;9.140;2023-04-03T14:25:16;0.60;;;0.60;;
10418;SDS011;5256;48.728;9.140;2023-04-03T14:27:43;0.60;;;0.60;;
10418;SDS011;5256;48.728;9.140;2023-04-03T14:33:02;0.60;;;0.60;;
10418;SDS011;5256;48.728;9.140;2023-04-03T14:35:27;0.60;;;0.60;;
10418;SDS011;5256;48.728;9.140;2023-04-03T14:37:53;0.60;;;0.60;;
10418;SDS011;5256;48.728;9.140;2023-04-03T14:40:28;0.80;;;0.80;;
10418;SDS011;5256;48.728;9.140;2023-04-03T14:42:54;0.70;;;0.70;;
10418;SDS011;5256;48.728;9.140;2023-04-03T14:45:21;0.73;;;0.73;;
10418;SDS011;5256;48.728;9.140;2023-04-03T14:47:47;0.60;;;0.60;;
10418;SDS011;5256;48.728;9.140;2023-04-03T14:50:16;0.60;;;0.60;;
10418;SDS011;5256;48.728;9.140;2023-04-03T14:52:44;0.60;;;0.60;;
10418;SDS011;5256;48.728;9.140;2023-04-03T14:55:10;0.50;;;0.50;;
10418;SDS011;5256;48.728;9.140;2023-04-03T14:57:37;0.60;;;0.60;;
10418;SDS011;5256;48.728;9.140;2023-04-03T15:00:04;0.50;;;0.50;;
10418;SDS011;5256;48.728;9.140;2023-04-03T15:04:59;0.63;;;0.63;;
10418;SDS011;5256;48.728;9.140;2023-04-03T15:07:29;0.50;;;0.50;;
10418;SDS011;5256;48.728;9.140;2023-04-03T15:09:55;0.50;;;0.50;;
10418;SDS011;5256;48.728;9.140;2023-04-03T15:12:22;0.63;;;0.63;;
10418;SDS011;5256;48.728;9.140;2023-04-03T15:14:48;0.63;;;0.63;;
10418;SDS011;5256;48.728;9.140;2023-04-03T15:17:15;0.70;;;0.70;;
10418;SDS011;5256;48.728;9.140;2023-04-03T15:19:44;0.60;;;0.60;;
10418;SDS011;5256;48.728;9.140;2023-04-03T15:22:18;0.60;;;0.60;;
10418;SDS011;5256;48.728;9.140;2023-04-03T15:24:44;0.60;;;0.60;;
10418;SDS011;5256;48.728;9.140;2023-04-03T15:27:11;0.60;;;0.60;;
10418;SDS011;5256;48.728;9.140;2023-04-03T15:29:38;0.60;;;0.60;;
10418;SDS011;5256;48.728;9.140;2023-04-03T15:32:05;0.57;;;0.57;;
10418;SDS011;5256;48.728;9.140;2023-04-03T15:34:31;0.57;;;0.57;;
10418;SDS011;5256;48.728;9.140;2023-04-03T15:36:57;0.60;;;0.60;;
10418;SDS011;5256;48.728;9.140;2023-04-03T15:39:24;0.60;;;0.60;;
10418;SDS011;5256;48.728;9.140;2023-04-03T15:41:50;0.60;;;0.60;;
10418;SDS011;5256;48.728;9.140;2023-04-03T15:44:17;0.70;;;0.70;;
10418;SDS011;5256;48.728;9.140;2023-04-03T15:46:43;0.60;;;0.60;;
10418;SDS011;5256;48.728;9.140;2023-04-03T15:49:10;0.60;;;0.60;;
10418;SDS011;5256;48.728;9.140;2023-04-03T15:51:36;0.60;;;0.60;;
10418;SDS011;5256;48.728;9.140;2023-04-03T15:54:02;0.60;;;0.60;;
10418;SDS011;5256;48.728;9.140;2023-04-03T15:56:27;0.70;;;0.70;;
10418;SDS011;5256;48.728;9.140;2023-04-03T15:58:53;0.70;;;0.70;;
10418;SDS011;5256;48.728;9.140;2023-04-03T16:01:19;0.63;;;0.63;;
10418;SDS011;5256;48.728;9.140;2023-04-03T16:03:44;0.60;;;0.60;;
10418;SDS011;5256;48.728;9.140;2023-04-03T16:06:11;0.67;;;0.67;;
10418;SDS011;5256;48.728;9.140;2023-04-03T16:08:37;0.60;;;0.60;;
10418;SDS011;5256;48.728;9.140;2023-04-03T16:11:03;0.70;;;0.70;;
10418;SDS011;5256;48.728;9.140;2023-04-03T16:13:29;0.70;;;0.70;;
10418;SDS011;5256;48.728;9.140;2023-04-03T16:15:55;0.70;;;0.70;;
10418;SDS011;5256;48.728;9.140;2023-04-03T16:18:21;0.70;;;0.70;;
10418;SDS011;5256;48.728;9.140;2023-04-03T16:20:46;0.63;;;0.63;;
10418;SDS011;5256;48.728;9.140;2023-04-03T16:23:12;0.60;;;0.60;;
10418;SDS011;5256;48.728;9.140;2023-04-03T16:25:38;0.60;;;0.60;;
10418;SDS011;5256;48.728;9.140;2023-04-03T16:28:03;0.70;;;0.70;;
10418;SDS011;5256;48.728;9.140;2023-04-03T16:30:30;0.67;;;0.67;;
10418;SDS011;5256;48.728;9.140;2023-04-03T16:32:56;0.60;;;0.60;;
10418;SDS011;5256;48.728;9.140;2023-04-03T16:35:22;0.80;;;0.80;;
10418;SDS011;5256;48.728;9.140;2023-04-03T16:37:47;0.60;;;0.60;;
10418;SDS011;5256;48.728;9.140;2023-04-03T16:40:13;0.70;;;0.70;;
10418;SDS011;5256;48.728;9.140;2023-04-03T16:42:42;0.70;;;0.70;;
10418;SDS011;5256;48.728;9.140;2023-04-03T16:45:22;0.70;;;0.70;;
10418;SDS011;5256;48.728;9.140;2023-04-03T16:48:06;0.70;;;0.70;;
10418;SDS011;5256;48.728;9.140;2023-04-03T16:50:32;0.70;;;0.70;;
10418;SDS011;5256;48.728;9.140;2023-04-03T16:52:58;0.60;;;0.60;;
10418;SDS011;5256;48.728;9.140;2023-04-03T16:55:23;0.70;;;0.70;;
10418;SDS011;5256;48.728;9.140;2023-04-03T16:57:49;0.60;;;0.60;;
10418;SDS011;5256;48.728;9.140;2023-04-03T17:00:15;0.70;;;0.70;;
10418;SDS011;5256;48.728;9.140;2023-04-03T17:02:41;0.70;;;0.70;;
10418;SDS011;5256;48.728;9.140;2023-04-03T17:05:06;0.60;;;0.60;;
10418;SDS011;5256;48.728;9.140;2023-04-03T17:07:32;0.60;;;0.60;;
10418;SDS011;5256;48.728;9.140;2023-04-03T17:09:58;0.60;;;0.60;;
10418;SDS011;5256;48.728;9.140;2023-04-03T17:12:24;0.70;;;0.70;;
10418;SDS011;5256;48.728;9.140;2023-04-03T17:14:50;0.60;;;0.60;;
10418;SDS011;5256;48.728;9.140;2023-04-03T17:17:18;0.60;;;0.60;;
10418;SDS011;5256;48.728;9.140;2023-04-03T17:19:46;0.60;;;0.60;;
10418;SDS011;5256;48.728;9.140;2023-04-03T17:22:12;0.60;;;0.60;;
10418;SDS011;5256;48.728;9.140;2023-04-03T17:24:38;0.63;;;0.63;;